TAF Text Data
IDs:
Format:
Raw Decoded Include METAR

Data at: 1814 UTC 03 Jul 2020

KTLH 031726Z 0318/0418 23005KT P6SM VCTS BKN035CB
  TEMPO 0318/0322 VRB10G20KT 4SM TSRA
  FM040100 VRB03KT P6SM BKN100
  FM041600 11005KT P6SM VCTS BKN040CB